Terminal Aerodrome Forecast
Issued by NWS

Home | Current Version | Previous Version | Text Only | Print | Product List | Glossary On
Versions: 1 2 3 4 5 6 7 8 9 10 11 12 13 14 15
000
FTUS43 KGLD 140500 AAB
TAFMCK
TAF AMD
KMCK 140501Z 1405/1424 35020G28KT P6SM BKN060
     FM140900 34015KT P6SM BKN080
     FM141600 32020G28KT P6SM SCT060=

USA.gov is the U.S. government's official web portal to all federal, state and local government web resources and services.